This is the latest recevied weather packets stored in our database for station/object WA7ABU-29. If no packets are shown the sender has not sent any weather packets the latest 10 day(s).
| Time | Temp. | Humidity | Pressure | Rain* | Wind** | Luminosity | Snow |
|---|---|---|---|---|---|---|---|
| 1777528225 | 12.78° C | 70% | 1001 hPa | 0 mm | - | - | - |
| 1777527438 | 12.78° C | 70% | 1001 hPa | 0 mm | - | - | - |
| 1777526415 | 13.33° C | 68% | 1001 hPa | 0 mm | - | - | - |
| 1777526291 | 12.78° C | 68% | 1001.4 hPa | 0 mm | - | - | - |
| 1777525548 | 12.78° C | 68% | 1001 hPa | 0 mm | - | - | - |
| 1777525424 | 13.33° C | 67% | 1001.4 hPa | 0 mm | - | - | - |
| 1777524460 | 13.89° C | 64% | 1001.4 hPa | 0 mm | - | - | - |
| 1777522978 | 15° C | 59% | 1001 hPa | 0 mm | - | - | - |
| 1777522721 | 15° C | 59% | 1001 hPa | 0 mm | - | - | - |
| 1777521852 | 15° C | 59% | 1001 hPa | 0 mm | - | - | - |
| 1777521481 | 14.44° C | 60% | 1001 hPa | 0 mm | - | - | - |
| 1777521357 | 14.44° C | 61% | 1001 hPa | 0 mm | - | - | - |
| 1777520301 | 14.44° C | 62% | 1000.7 hPa | 0 mm | - | - | - |
| 1777520279 | 14.44° C | 62% | 1000.7 hPa | 0 mm | - | - | - |
| 1777519586 | 15° C | 60% | 1000.7 hPa | 0 mm | - | - | - |
| 1777518688 | 15.56° C | 59% | 1000.7 hPa | 0 mm | - | - | - |
| 1777518441 | 15.56° C | 59% | 1000.7 hPa | 0 mm | - | - | - |
| 1777518193 | 15.56° C | 59% | 1000.7 hPa | 0 mm | - | - | - |
| 1777517047 | 15.56° C | 59% | 1000.7 hPa | 0 mm | - | - | - |
| 1777516924 | 15.56° C | 59% | 1000.7 hPa | 0 mm | - | - | - |
| 1777515837 | 16.67° C | 56% | 1000.7 hPa | 0 mm | - | - | - |
| 1777515434 | 16.67° C | 55% | 1000.7 hPa | 0 mm | - | - | - |
| 1777514379 | 17.78° C | 53% | 1000.7 hPa | 0 mm | - | - | - |
| 1777513490 | 17.78° C | 52% | 1001 hPa | 0 mm | - | - | - |
| 1777513108 | 17.78° C | 51% | 1001 hPa | 0 mm | - | - | - |
* Rain latest hour (hover to see other rain measurements)
** Current wind speed in m/s (hover to see current wind gust speed)